Aérodrome d'Arcachon-La Teste-de-Buch

LFCH

August 18, 2022

Time Code Weather Temp. Visibility Ceiling Wind METAR/SPECI
22:30
I
19 °C 3.6 km 1,400 ft 300° 300° 12 kt METAR LFBZ 182030Z AUTO 30012KT 9999 3600 RA SCT010/// BKN014/// BKN024/// //////TCU 19/18 Q1021 TEMPO 32015G25KT 4000 SHRA BKN009 FEW025CB BKN030TCU
22:00
M
19 °C 10 km+ 1,000 ft 300° 300° 14 kt METAR LFBZ 182000Z AUTO 30014KT 9999 BKN010/// BKN021/// BKN028/// ///CB 19/17 Q1021 TEMPO 32015G25KT 4000 SHRA
21:30
M
19 °C 10 km+ 1,100 ft 300° 300° 17 kt METAR LFBZ 181930Z AUTO 30017KT 9999 BKN011/// BKN019/// BKN027/// ///TCU 19/17 Q1021 TEMPO 32015G25KT 4000 SHRA BKN014 FEW025CB BKN030TCU
21:00
M
21 °C 10 km+ 2,100 ft 320° 320° 9 kt METAR LFBZ 181900Z AUTO 32009KT 290V360 9999 BKN021/// BKN031/// BKN042/// ///CB 21/17 Q1020 TEMPO 32015G25KT 4000 SHRA BKN014 FEW025CB BKN030TCU
20:30
M
21 °C 10 km+ 2,200 ft 310° 310° 10 kt METAR LFBZ 181830Z AUTO 31010KT 9999 FEW010/// BKN022/// BKN028/// ///CB 21/16 Q1020 TEMPO 32015G25KT 4000 SHRA BKN014 FEW025CB BKN030TCU
20:00
M
20 °C 10 km+ 2,200 ft 290° 290° 8 kt METAR LFBZ 181800Z AUTO 29008KT 9999 FEW013/// BKN022/// BKN034/// //////CB 20/18 Q1020 TEMPO 32015G25KT 4000 SHRA BKN014 BKN030TCU
19:30
I
20 °C 3.3 km 2,900 ft 280° 280° 10 kt METAR LFBZ 181730Z AUTO 28010KT 9999 3300 R27/1200D SCT016/// BKN029/// BKN044/// ///CB 20/18 Q1020 TEMPO 32015G25KT 4000 SHRA BKN014 BKN030TCU
19:00
V
20 °C 10 km+ 3,000 ft 280° 280° 11 kt METAR LFBZ 181700Z AUTO 28011KT 9999 FEW016/// BKN030/// BKN040/// ///CB 20/17 Q1020 TEMPO 32015G25KT 4000 SHRA BKN010 BKN030TCU
18:30
V
21 °C 10 km+ 6,200 ft 270° 270° 9 kt METAR LFBZ 181630Z AUTO 27009KT 240V300 9999 FEW020/// SCT041/// BKN062/// //////CB 21/17 Q1020 TEMPO 32015G25KT 4000 SHRA BKN010 BKN030TCU
18:00
M
20 °C 10 km+ 1,100 ft 270° 270° 12 kt METAR LFBZ 181600Z AUTO 27012KT 230V290 9999 BKN011/// BKN017/// OVC090/// //////TCU 20/18 Q1020 TEMPO 32015G25KT 4000 SHRA
17:30
M
20 °C 10 km+ 1,500 ft 280° 280° 15 kt METAR LFBZ 181530Z AUTO 28015KT 9999 SCT010/// BKN015/// BKN054/// //////TCU 20/18 Q1020 TEMPO 32015G25KT 4000 SHRA BKN010 BKN030TCU
17:00
I
19 °C 10 km+ 900 ft 270° 270° 16 kt METAR LFBZ 181500Z AUTO 27016KT 9999 BKN009/// OVC015/// ///TCU 19/18 Q1020 TEMPO 32015G25KT 4000 SHRA BKN010 BKN030TCU
16:30
I
19 °C 10 km+ 900 ft 280° 280° 19 kt METAR LFBZ 181430Z AUTO 28019KT 250V310 9999 -RADZ BKN009/// BKN015/// BKN030/// //////TCU 19/18 Q1020 TEMPO 32015G25KT 4000 SHRA BKN010 BKN030TCU
16:00
I
20 °C 10 km+ 900 ft 290° 290° 18 kt METAR LFBZ 181400Z AUTO 29018KT 9999 BKN009/// BKN015/// OVC092/// ///CB 20/18 Q1019 TEMPO 32015G25KT 4000 SHRA BKN010 BKN030TCU
15:30
I
20 °C 10 km+ 900 ft 280° 280° 20 kt METAR LFBZ 181330Z AUTO 28020KT 9999 BKN009/// BKN016/// OVC024/// ///TCU 20/17 Q1019 TEMPO 32015G25KT 4000 SHRA BKN007 BKN020CB
15:00
I
20 °C 10 km+ 900 ft 270° 270° 20 kt METAR LFBZ 181300Z AUTO 27020KT 9999 OVC009/// //////TCU 20/17 Q1019 TEMPO 28020G30KT 2000 TSRA BKN007 BKN020CB
14:30
I
20 °C 10 km+ 900 ft 280° 280° 23 kt METAR LFBZ 181230Z AUTO 28023KT 9999 BKN009/// BKN018/// OVC026/// ///TCU 20/17 Q1019 TEMPO 28020G30KT 2000 TSRA BKN007 BKN020CB
14:00
I
19 °C 10 km+ 800 ft 280° 280° 21 kt METAR LFBZ 181200Z AUTO 28021KT 9999 BKN008 BKN012 OVC082 19/17 Q1019 TEMPO 28020G30KT 2000 TSRA BKN007 BKN020CB
13:30
M
20 °C 10 km+ 1,000 ft 290° 290° 18 kt METAR LFBZ 181130Z AUTO 29018KT 9999 BKN010/// BKN015/// OVC092/// //////TCU 20/18 Q1019 TEMPO 32015G25KT 4000 SHRA BKN010 FEW025CB BKN030TCU
13:00
M
21 °C 10 km+ 1,200 ft 280° 280° 21 kt METAR LFBZ 181100Z AUTO 28021KT 9999 BKN012/// BKN054/// OVC150/// ///CB 21/18 Q1019 TEMPO 27015G30KT 2000 TSRA BKN007 BKN020CB
12:30
M
20 °C 10 km+ 1,100 ft 290° 290° 22 kt METAR LFBZ 181030Z AUTO 29022KT 9999 BKN011/// BKN018/// BKN140/// //////CB 20/18 Q1018 TEMPO 27015G30KT 2000 TSRA BKN007 BKN020CB
12:00
M
20 °C 10 km+ 1,100 ft 300° 300° 17 kt METAR LFBZ 181000Z AUTO 30017KT 9999 BKN011/// BKN023/// OVC140/// //////CB 20/18 Q1018 TEMPO 27015G30KT 2000 TSRA BKN007 BKN020CB
11:30
I
19 °C 10 km+ 800 ft 290° 290° 20 kt METAR LFBZ 180930Z AUTO 29020KT 9999 BKN008/// BKN012/// BKN017/// ///CB 19/18 Q1018 TEMPO 27015G30KT 2000 TSRA
11:00
M
18 °C 10 km+ 1,000 ft 290° 290° 19 kt METAR LFBZ 180900Z AUTO 29019KT 9999 -RA BKN010/// BKN016/// OVC022/// ///CB 18/18 Q1018 TEMPO 27015G30KT 2000 TSRA
10:30
L
18 °C 650 m 900 ft 280° 280° 16 kt METAR LFBZ 180830Z AUTO 28016KT 250V310 6000 0650 R09/P2000 R27/1000U -RA BCFG BKN009/// OVC015/// //////CB 18/17 Q1017 TEMPO 27015G30KT 2000 TSRA
10:00
I
18 °C 10 km+ 800 ft 290° 290° 15 kt METAR LFBZ 180800Z AUTO 29015KT 9999 -RA BKN008/// OVC014/// //////CB 18/17 Q1017 TEMPO 27015G30KT 2000 TSRA
09:30
I
17 °C 2.1 km 1,500 ft 280° 280° 18 kt METAR LFBZ 180730Z AUTO 28018KT 240V300 2100 R27/1300U RA BR SCT008/// BKN015/// BKN021/// //////CB 17/17 Q1017 TEMPO 27015G30KT TSRA BKN007 BKN020CB
09:00
M
18 °C 5 km 1,400 ft 280° 280° 16 kt METAR LFBZ 180700Z AUTO 28016KT 5000 -RA BR BKN014/// OVC027/// ///CB 18/16 Q1017 TEMPO 27015G30KT 2000 TSRA BKN007 BKN020CB
08:30
M
18 °C 10 km+ 1,000 ft 280° 280° 18 kt METAR LFBZ 180630Z AUTO 28018KT 9999 BKN010/// BKN015/// BKN021/// //////CB 18/17 Q1017 TEMPO 27015G30KT 2000 TSRA
08:00
M
18 °C 10 km+ 1,000 ft 280° 280° 21 kt METAR LFBZ 180600Z AUTO 28021KT 9999 BKN010/// BKN016/// BKN023/// //////CB 18/17 Q1017 TEMPO 27015G30KT 2000 TSRA
07:30
M
18 °C 10 km+ 1,100 ft 290° 290° 15 kt METAR LFBZ 180530Z AUTO 29015KT 9999 BKN011/// BKN030/// BKN039/// //////CB 18/17 Q1016 TEMPO 27015G30KT 2000 TSRA BKN007 BKN020CB
07:00
M
18 °C 10 km+ 1,000 ft 300° 300° 13 kt METAR LFBZ 180500Z AUTO 30013KT 9999 BKN010/// BKN023/// BKN034/// ///CB 18/16 Q1016 TEMPO 27015G30KT 2000 TSRA
06:30
M
18 °C 10 km+ 1,100 ft 290° 290° 17 kt METAR LFBZ 180430Z AUTO 29017KT 9999 -RA BKN011/// OVC020/// ///CB 18/17 Q1016 TEMPO 27015G30KT 2000 TSRA BKN007 BKN020CB
06:00
M
18 °C 10 km+ 1,100 ft 300° 300° 16 kt METAR LFBZ 180400Z AUTO 30016KT 9999 -RA FEW007/// BKN011/// BKN019/// ///CB 18/17 Q1016 TEMPO 27015G30KT 2000 TSRA
05:30
M
18 °C 7 km 1,100 ft 290° 290° 16 kt METAR LFBZ 180330Z AUTO 29016KT 7000 -RA BKN011/// BKN023/// BKN039/// //////CB 18/17 Q1016 TEMPO 27015G30KT 2000 TSRA
05:00
M
18 °C 10 km+ 1,200 ft 300° 300° 15 kt METAR LFBZ 180300Z AUTO 30015KT 9999 BKN012/// BKN019/// BKN039/// ///CB 18/17 Q1016 TEMPO 27015G30KT 2000 TSRA
04:30
M
19 °C 10 km+ 1,200 ft 310° 310° 11 kt METAR LFBZ 180230Z AUTO 31011KT 9999 BKN012/// BKN020/// BKN044/// //////CB 19/17 Q1016 TEMPO 27015G30KT 2000 TSRA
04:00
M
18 °C 10 km+ 1,300 ft 320° 320° 7 kt METAR LFBZ 180200Z AUTO 32007KT 9999 -RA SCT008/// BKN013/// BKN030/// //////CB 18/17 Q1015 TEMPO 27015G30KT 2000 TSRA
03:30
I
18 °C 5 km 700 ft 310° 310° 12 kt METAR LFBZ 180130Z AUTO 31012KT 280V340 5000 RA BR BKN007/// BKN011/// BKN031/// //////CB 18/17 Q1016 TEMPO 27015G30KT 2000 TSRA BKN010 BKN020CB
03:00
M
18 °C 5 km 1,500 ft Var Var 10 kt METAR LFBZ 180100Z AUTO VRB10KT 5000 +RA BR SCT008/// BKN015/// BKN025/// //////CB 18/17 Q1016 TEMPO 27015G30KT 2000 TSRA BKN010 BKN020CB
02:30
M
19 °C 8 km 2,700 ft 280° 280° 8 kt METAR LFBZ 180030Z AUTO 28008KT 8000 -RA SCT017/// BKN027/// BKN038/// ///CB 19/17 Q1016 TEMPO 27015G30KT 2000 TSRA BKN010 BKN020CB
02:00
I
18 °C 4.4 km 5,200 ft 300° 300° 6 kt METAR LFBZ 180000Z AUTO 30006KT 9999 4400 -RA FEW012/// SCT041/// BKN052/// ///CB 18/17 Q1016 TEMPO 27015G30KT 2000 TSRA BKN010 BKN020CB
01:30
M
18 °C 10 km+ 1,200 ft 290° 290° 14 kt METAR LFBZ 172330Z AUTO 29014KT 9999 -RA SCT008/// BKN012/// BKN060/// //////CB 18/17 Q1016 TEMPO 27015G30KT 2000 TSRA BKN006 BKN020CB
01:00
I
18 °C 6 km 700 ft 250° 250° 9 kt METAR LFBZ 172300Z AUTO 25009KT 200V280 6000 -RA BKN007/// OVC012/// ///CB 18/17 Q1016 TEMPO 27015G30KT 2000 TSRA
00:30
L
18 °C 1.4 km 600 ft 260° 260° 12 kt METAR LFBZ 172230Z AUTO 26012KT 210V290 2800 1400 R09/P2000 R27/1600U RA BR BKN006/// OVC014/// //////CB 18/17 Q1016 TEMPO 27015G30KT TSRA BKN010 BKN020CB
00:00
I
18 °C 4.5 km 600 ft 240° 240° 10 - 22 kt METAR LFBZ 172200Z AUTO 24010G22KT 160V280 4500 -RA BR BKN006/// BKN014/// BKN019/// //////CB 18/18 Q1016 TEMPO 2000 TSRA BKN010 BKN020CB

August 17, 2022

Time Code Weather Temp. Visibility Ceiling Wind METAR/SPECI
23:30
V
18 °C 10 km+ 3,800 ft 280° 280° 8 kt METAR LFBZ 172130Z AUTO 28008KT 9999 -RA SCT020/// BKN038/// BKN058/// //////CB 18/17 Q1016 TEMPO 27015G30KT 2000 TSRA BKN010 BKN020CB
23:00
M
20 °C 10 km+ 2,000 ft 290° 290° 12 kt METAR LFBZ 172100Z AUTO 29012KT 9999 BKN020/// BKN029/// BKN096/// ///CB 20/16 Q1016 TEMPO 27015G30KT 2000 TSRA BKN010 BKN020CB
22:30
V
20 °C 10 km+ 9,200 ft 290° 290° 12 kt METAR LFBZ 172030Z AUTO 29012KT 9999 FEW022/// SCT050/// BKN092/// //////CB 20/17 Q1016 TEMPO 27015G30KT 2000 TSRA BKN010 BKN020CB
22:00
M
20 °C 10 km+ 2,000 ft 300° 300° 12 kt METAR LFBZ 172000Z AUTO 30012KT 9999 BKN020/// BKN029/// BKN054/// ///CB 20/17 Q1016 TEMPO 27015G30KT 2000 TSRA BKN010 BKN020CB
21:30
M
19 °C 10 km+ 1,700 ft 280° 280° 11 kt METAR LFBZ 171930Z AUTO 28011KT 230V310 9999 BKN017/// BKN027/// BKN047/// //////CB 19/17 Q1015 TEMPO 27015G30KT 2000 TSRA BKN010 BKN020CB
21:00
M
20 °C 10 km+ 2,100 ft 280° 280° 13 kt METAR LFBZ 171900Z AUTO 28013KT 240V310 9999 BKN021/// BKN037/// BKN062/// ///CB 20/17 Q1015 TEMPO 27015G30KT 2000 TSRA BKN010 BKN020CB
20:30
M
20 °C 10 km+ 1,900 ft 260° 260° 6 kt METAR LFBZ 171830Z AUTO 26006KT 230V300 9999 BKN019/// BKN033/// BKN058/// //////CB 20/17 Q1015 TEMPO 27015G30KT 2000 TSRA BKN010 BKN020CB
20:00
M
20 °C 10 km+ 1,400 ft 250° 250° 5 kt METAR LFBZ 171800Z AUTO 25005KT 200V290 9999 -RA BKN014/// BKN030/// BKN045/// //////CB 20/18 Q1015 TEMPO 27015G30KT 2000 TSRA
19:30
M
20 °C 10 km+ 1,700 ft 260° 260° 12 kt METAR LFBZ 171730Z AUTO 26012KT 230V290 9999 SCT012/// BKN017/// BKN043/// ///CB 20/17 Q1015 TEMPO 27015G30KT 2000 TSRA BKN010 BKN020CB
19:00
M
20 °C 10 km+ 1,700 ft 270° 270° 14 kt METAR LFBZ 171700Z AUTO 27014KT 9999 BKN017/// BKN045/// BKN120/// ///CB 20/17 Q1015 TEMPO 27015G30KT 2000 TSRA BKN010 BKN020CB
18:30
M
21 °C 10 km+ 1,500 ft 270° 270° 17 kt METAR LFBZ 171630Z AUTO 27017KT 230V300 9999 BKN015/// BKN049/// BKN064/// //////TCU 21/17 Q1014 TEMPO 27015G30KT 2000 TSRA SCT010 BKN020CB
18:00
M
22 °C 10 km+ 1,500 ft 270° 270° 19 kt METAR LFBZ 171600Z AUTO 27019KT 9999 BKN015/// //////TCU 22/17 Q1014 TEMPO 27015G30KT 2000 TSRA SCT010 BKN020CB
17:30
M
23 °C 10 km+ 1,700 ft 280° 280° 20 kt METAR LFBZ 171530Z AUTO 28020KT 9999 BKN017/// BKN024/// BKN039/// //////CB 23/17 Q1014 TEMPO 27015G30KT 2000 TSRA
17:00
M
23 °C 10 km+ 2,900 ft 280° 280° 19 kt METAR LFBZ 171500Z AUTO 28019KT 250V310 9999 SCT018 BKN029 23/17 Q1014 TEMPO 27015G30KT 2000 TSRA SCT010 BKN020CB
16:30
M
24 °C 10 km+ 1,800 ft 280° 280° 18 kt METAR LFBZ 171430Z AUTO 28018KT 9999 BKN018 BKN028 BKN130 24/18 Q1014 TEMPO 27015G30KT 2000 TSRA SCT010 BKN020CB
16:00
M
23 °C 10 km+ 2,000 ft 280° 280° 16 - 26 kt METAR LFBZ 171400Z AUTO 28016G26KT 250V310 9999 BKN020 BKN027 BKN100 23/17 Q1014 TEMPO 2000 TSRA SCT010 BKN020CB
15:30
V
23 °C 10 km+ - 280° 280° 17 kt METAR LFBZ 171330Z AUTO 28017KT 250V310 9999 SCT018 SCT023 23/17 Q1013 TEMPO 27015G30KT 2000 TSRA SCT010 BKN020CB
15:00
M
23 °C 10 km+ 2,100 ft 270° 270° 17 kt METAR LFBZ 171300Z AUTO 27017KT 9999 BKN021 BKN029 BKN038 23/17 Q1013 TEMPO 27015G30KT 2000 TSRA SCT010 BKN020CB
14:30
V
23 °C 10 km+ - 290° 290° 16 kt METAR LFBZ 171230Z AUTO 29016KT 9999 SCT020 SCT110 23/17 Q1013 TEMPO 27015G30KT 2000 TSRA SCT010 BKN020CB
14:00
V
23 °C 10 km+ - 280° 280° 15 kt METAR LFBZ 171200Z AUTO 28015KT 9999 FEW020/// //////TCU 23/17 Q1013 TEMPO 27015G30KT 4000 SHRA SCT010 FEW025CB BKN030TCU
13:30
M
23 °C 10 km+ 2,000 ft 280° 280° 17 kt METAR LFBZ 171130Z AUTO 28017KT 9999 BKN020/// BKN030/// BKN039/// //////CB 23/18 Q1013 TEMPO 27015G30KT 4000 SHRA
13:00
M
21 °C 10 km+ 2,000 ft 280° 280° 14 kt METAR LFBZ 171100Z AUTO 28014KT 9999 BKN020/// BKN035/// BKN056/// ///TCU 21/17 Q1013 TEMPO 27015G30KT 4000 SHRA SCT010 FEW025CB BKN030TCU
12:30
M
20 °C 10 km+ 2,000 ft 270° 270° 13 kt METAR LFBZ 171030Z AUTO 27013KT 9999 BKN020/// BKN028/// BKN037/// //////CB 20/17 Q1013 TEMPO 27015G30KT 4000 SHRA
12:00
M
20 °C 10 km+ 2,300 ft 310° 310° 13 kt METAR LFBZ 171000Z AUTO 31013KT 280V340 9999 FEW017/// BKN023/// BKN033/// //////TCU 20/16 Q1013 TEMPO 27015G30KT 4000 SHRA SCT010 FEW025CB BKN030TCU
11:30
V
23 °C 10 km+ 5,400 ft 260° 260° 10 kt METAR LFBZ 170930Z AUTO 26010KT 210V300 9999 FEW023/// SCT041/// BKN054/// ///TCU 23/15 Q1012 TEMPO 27015G30KT 4000 SHRA SCT010 FEW025CB BKN030TCU
11:00
V
21 °C 10 km+ 6,200 ft 270° 270° 14 kt METAR LFBZ 170900Z AUTO 27014KT 220V290 9999 FEW021/// SCT052/// BKN062/// //////TCU 21/15 Q1012 TEMPO 27015G30KT 4000 SHRA SCT010 FEW025CB BKN030TCU
10:30
V
21 °C 10 km+ 6,800 ft 270° 270° 12 kt METAR LFBZ 170830Z AUTO 27012KT 220V290 9999 FEW022/// BKN068/// OVC080/// //////TCU 21/15 Q1012 TEMPO 27015G30KT 4000 SHRA SCT010 FEW025CB BKN030TCU
10:00
V
21 °C 10 km+ 3,900 ft 260° 260° 11 - 23 kt METAR LFBZ 170800Z AUTO 26011G23KT 200V300 9999 FEW018/// SCT023/// BKN039/// ///TCU 21/16 Q1012 BECMG NSC
09:30
V
20 °C 10 km+ 7,400 ft Var Var 2 kt METAR LFBZ 170730Z AUTO VRB02KT 9999 FEW039/// SCT062/// BKN074/// //////CB 20/14 Q1011 TEMPO 27015G30KT BECMG NSC
09:00
V
20 °C 10 km+ 6,000 ft 160° 160° 3 kt METAR LFBZ 170700Z AUTO 16003KT 9999 FEW038/// BKN060/// //////CB 20/14 Q1011 TEMPO 27015G30KT BECMG NSC
08:30
V
18 °C 10 km+ 7,600 ft 170° 170° 3 kt METAR LFBZ 170630Z AUTO 17003KT 9999 FEW038/// BKN076/// //////TCU 18/14 Q1011 TEMPO 27015G30KT BECMG NSC
08:00
V
17 °C 10 km+ 7,600 ft 190° 190° 3 kt METAR LFBZ 170600Z AUTO 19003KT 9999 FEW036/// BKN076/// ///CB 17/14 Q1011 BECMG 27010KT NSC
07:30
V
16 °C 10 km+ 3,600 ft 200° 200° 3 kt METAR LFBZ 170530Z AUTO 20003KT 170V240 9999 BKN036/// //////CB 16/14 Q1011 BECMG NSC
07:00
V
16 °C 10 km+ - 200° 200° 4 kt METAR LFBZ 170500Z AUTO 20004KT 9999 FEW040/// ///CB 16/13 Q1011 BECMG 27010KT NSC
06:30
V
16 °C 10 km+ - 220° 220° 4 kt METAR LFBZ 170430Z AUTO 22004KT 200V260 9999 //////TCU 16/14 Q1010 BECMG NSC
06:00
V
16 °C 10 km+ - 220° 220° 5 kt METAR LFBZ 170400Z AUTO 22005KT 180V240 9999 //////CB 16/14 Q1011 BECMG NSC
05:30
V
17 °C 10 km+ - 220° 220° 4 kt METAR LFBZ 170330Z AUTO 22004KT 170V250 CAVOK 17/14 Q1011 NOSIG
05:00
V
17 °C 10 km+ - 210° 210° 4 kt METAR LFBZ 170300Z AUTO 21004KT 170V230 CAVOK 17/14 Q1011 NOSIG
04:30
V
17 °C 10 km+ - 210° 210° 4 kt METAR LFBZ 170230Z AUTO 21004KT CAVOK 17/14 Q1011 NOSIG
04:00
V
17 °C 10 km+ - 210° 210° 4 kt METAR LFBZ 170200Z AUTO 21004KT 180V240 9999 FEW042 17/14 Q1011 NOSIG
03:30
V
17 °C 10 km+ - 210° 210° 3 kt METAR LFBZ 170130Z AUTO 21003KT 180V250 9999 FEW034 SCT045 17/15 Q1011 NOSIG
03:00
V
18 °C 10 km+ 3,900 ft 220° 220° 3 kt METAR LFBZ 170100Z AUTO 22003KT 9999 BKN039 18/15 Q1011 TEMPO SHRA SCT020 BKN030CB
02:30
V
18 °C 10 km+ 13,000 ft Var Var 3 kt METAR LFBZ 170030Z AUTO VRB03KT 9999 FEW034 BKN130 18/15 Q1011 TEMPO SHRA SCT020 BKN030CB
02:00
V
18 °C 10 km+ - 210° 210° 3 kt METAR LFBZ 170000Z AUTO 21003KT 180V240 CAVOK 18/15 Q1011 TEMPO SHRA SCT020 BKN030CB
01:30
V
19 °C 10 km+ - 210° 210° 3 kt METAR LFBZ 162330Z AUTO 21003KT CAVOK 19/15 Q1011 TEMPO SHRA SCT020 BKN030CB
01:00
V
18 °C 10 km+ - 220° 220° 3 kt METAR LFBZ 162300Z AUTO 22003KT 180V280 CAVOK 18/15 Q1011 NOSIG
00:30
V
20 °C 10 km+ - 220° 220° 4 kt METAR LFBZ 162230Z AUTO 22004KT 9999 FEW027 20/15 Q1011 NOSIG
00:00
V
20 °C 10 km+ - 240° 240° 3 kt METAR LFBZ 162200Z AUTO 24003KT 9999 FEW066 20/15 Q1011 NOSIG

August 16, 2022

Time Code Weather Temp. Visibility Ceiling Wind METAR/SPECI
23:30
V
20 °C 10 km+ - 250° 250° 4 kt METAR LFBZ 162130Z AUTO 25004KT CAVOK 20/15 Q1011 NOSIG
23:00
V
21 °C 10 km+ - 280° 280° 8 kt METAR LFBZ 162100Z AUTO 28008KT 9999 FEW026 21/16 Q1011 NOSIG
22:30
V
21 °C 10 km+ 5,800 ft 300° 300° 10 kt METAR LFBZ 162030Z AUTO 30010KT 9999 FEW025/// SCT030/// BKN058/// //////TCU 21/15 Q1011 BECMG 22005KT BKN030
22:00
V
22 °C 10 km+ 5,400 ft 300° 300° 11 kt METAR LFBZ 162000Z AUTO 30011KT 9999 SCT024/// OVC054/// //////CB 22/17 Q1011 TEMPO 4000 SHRA BECMG BKN030
21:30
V
22 °C 10 km+ 5,400 ft 300° 300° 8 kt METAR LFBZ 161930Z AUTO 30008KT 9999 SCT024/// OVC054/// //////CB 22/17 Q1011 TEMPO 4000 SHRA BECMG BKN030
21:00
V
22 °C 10 km+ 4,800 ft 310° 310° 7 kt METAR LFBZ 161900Z AUTO 31007KT 9999 FEW024 BKN048 BKN056 22/17 Q1010 TEMPO 4000 SHRA BKN015 BKN040TCU
20:30
V
22 °C 10 km+ 4,800 ft 310° 310° 7 kt METAR LFBZ 161830Z AUTO 31007KT 280V340 9999 FEW023 OVC048 22/17 Q1010 TEMPO 4000 SHRA BKN015 BKN040TCU
20:00
V
22 °C 10 km+ 4,700 ft 310° 310° 9 kt METAR LFBZ 161800Z AUTO 31009KT 290V350 9999 FEW023 OVC047 22/16 Q1010 TEMPO 4000 SHRA BKN015 BKN040TCU
19:30
V
22 °C 10 km+ 4,600 ft 330° 330° 7 kt METAR LFBZ 161730Z AUTO 33007KT 9999 FEW024 OVC046 22/16 Q1009 TEMPO 4000 SHRA BKN015 BKN040TCU
19:00
V
22 °C 10 km+ 4,400 ft 320° 320° 7 kt METAR LFBZ 161700Z AUTO 32007KT 290V010 9999 FEW024 OVC044 22/17 Q1009 TEMPO 4000 SHRA BKN015 BKN040TCU
18:30
V
22 °C 10 km+ 4,400 ft 320° 320° 7 kt METAR LFBZ 161630Z AUTO 32007KT 280V010 9999 FEW027 OVC044 22/16 Q1009 TEMPO 4000 SHRA BKN015 BKN040TCU
18:00
V
23 °C 10 km+ 4,400 ft 340° 340° 8 kt METAR LFBZ 161600Z AUTO 34008KT 290V010 9999 FEW027/// BKN044/// 23/16 Q1009 TEMPO 4000 SHRA BKN015 BKN040TCU
17:30
V
23 °C 10 km+ 4,300 ft 330° 330° 7 kt METAR LFBZ 161530Z AUTO 33007KT 290V030 9999 BKN043/// 23/16 Q1009 TEMPO 4000 SHRA BKN015 BKN040TCU
17:00
V
23 °C 10 km+ 4,100 ft 330° 330° 8 kt METAR LFBZ 161500Z AUTO 33008KT 290V360 9999 OVC041 23/16 Q1009 TEMPO 4000 SHRA BKN015 BKN040TCU
Older data

We and third parties follow your internet behavior on our website with cookies. If you continue, we assume you agree with our cookie policy. Learn more